sensor_id;sensor_type;location;lat;lon;timestamp;P1;durP1;ratioP1;P2;durP2;ratioP2
20118;SDS011;10220;42.716;23.306;2022-10-23T00:01:31;27.17;;;14.13;;
20118;SDS011;10220;42.716;23.306;2022-10-23T00:04:02;23.20;;;14.38;;
20118;SDS011;10220;42.716;23.306;2022-10-23T00:06:31;31.73;;;15.57;;
20118;SDS011;10220;42.716;23.306;2022-10-23T00:08:58;24.67;;;14.77;;
20118;SDS011;10220;42.716;23.306;2022-10-23T00:11:25;26.85;;;14.10;;
20118;SDS011;10220;42.716;23.306;2022-10-23T00:13:53;22.77;;;14.93;;
20118;SDS011;10220;42.716;23.306;2022-10-23T00:16:19;27.75;;;14.38;;
20118;SDS011;10220;42.716;23.306;2022-10-23T00:18:45;26.27;;;13.70;;
20118;SDS011;10220;42.716;23.306;2022-10-23T00:21:11;25.40;;;13.82;;
20118;SDS011;10220;42.716;23.306;2022-10-23T00:23:38;22.40;;;10.75;;
20118;SDS011;10220;42.716;23.306;2022-10-23T00:26:04;25.67;;;12.07;;
20118;SDS011;10220;42.716;23.306;2022-10-23T00:28:32;23.88;;;12.20;;
20118;SDS011;10220;42.716;23.306;2022-10-23T00:31:00;19.77;;;12.40;;
20118;SDS011;10220;42.716;23.306;2022-10-23T00:33:26;22.58;;;13.05;;
20118;SDS011;10220;42.716;23.306;2022-10-23T00:35:51;23.48;;;11.15;;
20118;SDS011;10220;42.716;23.306;2022-10-23T00:38:16;22.45;;;12.45;;
20118;SDS011;10220;42.716;23.306;2022-10-23T00:40:42;19.88;;;12.07;;
20118;SDS011;10220;42.716;23.306;2022-10-23T00:43:18;18.10;;;11.75;;
20118;SDS011;10220;42.716;23.306;2022-10-23T00:45:47;21.30;;;12.32;;
20118;SDS011;10220;42.716;23.306;2022-10-23T00:48:13;23.85;;;11.70;;
20118;SDS011;10220;42.716;23.306;2022-10-23T00:50:39;20.42;;;12.20;;
20118;SDS011;10220;42.716;23.306;2022-10-23T00:53:06;17.10;;;9.70;;
20118;SDS011;10220;42.716;23.306;2022-10-23T00:55:34;18.92;;;10.02;;
20118;SDS011;10220;42.716;23.306;2022-10-23T00:58:00;19.90;;;10.13;;
20118;SDS011;10220;42.716;23.306;2022-10-23T01:00:27;13.13;;;8.55;;
20118;SDS011;10220;42.716;23.306;2022-10-23T01:02:55;24.38;;;11.68;;
20118;SDS011;10220;42.716;23.306;2022-10-23T01:05:23;28.38;;;14.00;;
20118;SDS011;10220;42.716;23.306;2022-10-23T01:13:16;22.83;;;12.80;;
20118;SDS011;10220;42.716;23.306;2022-10-23T01:16:04;24.67;;;12.68;;
20118;SDS011;10220;42.716;23.306;2022-10-23T01:27:32;20.00;;;12.07;;
20118;SDS011;10220;42.716;23.306;2022-10-23T01:37:52;16.98;;;11.00;;
20118;SDS011;10220;42.716;23.306;2022-10-23T01:40:25;25.00;;;13.10;;
20118;SDS011;10220;42.716;23.306;2022-10-23T01:42:56;22.95;;;11.68;;
20118;SDS011;10220;42.716;23.306;2022-10-23T01:45:32;24.25;;;13.18;;
20118;SDS011;10220;42.716;23.306;2022-10-23T01:48:08;16.83;;;10.85;;
20118;SDS011;10220;42.716;23.306;2022-10-23T01:50:38;17.65;;;10.68;;
20118;SDS011;10220;42.716;23.306;2022-10-23T01:53:05;21.17;;;11.88;;
20118;SDS011;10220;42.716;23.306;2022-10-23T01:55:31;25.30;;;11.98;;
20118;SDS011;10220;42.716;23.306;2022-10-23T01:57:57;16.00;;;8.50;;
20118;SDS011;10220;42.716;23.306;2022-10-23T02:00:26;20.52;;;11.73;;
20118;SDS011;10220;42.716;23.306;2022-10-23T02:02:52;21.52;;;11.50;;
20118;SDS011;10220;42.716;23.306;2022-10-23T02:05:21;16.77;;;10.48;;
20118;SDS011;10220;42.716;23.306;2022-10-23T02:07:47;24.98;;;10.70;;
20118;SDS011;10220;42.716;23.306;2022-10-23T02:10:13;17.30;;;11.05;;
20118;SDS011;10220;42.716;23.306;2022-10-23T02:15:35;19.85;;;11.07;;
20118;SDS011;10220;42.716;23.306;2022-10-23T02:25:48;16.92;;;11.02;;
20118;SDS011;10220;42.716;23.306;2022-10-23T02:28:19;16.80;;;10.55;;
20118;SDS011;10220;42.716;23.306;2022-10-23T02:30:48;12.68;;;7.82;;
20118;SDS011;10220;42.716;23.306;2022-10-23T02:33:14;22.10;;;9.27;;
20118;SDS011;10220;42.716;23.306;2022-10-23T02:35:42;16.42;;;10.05;;
20118;SDS011;10220;42.716;23.306;2022-10-23T02:40:52;15.93;;;10.20;;
20118;SDS011;10220;42.716;23.306;2022-10-23T02:43:23;13.10;;;8.68;;
20118;SDS011;10220;42.716;23.306;2022-10-23T02:46:02;15.85;;;8.95;;
20118;SDS011;10220;42.716;23.306;2022-10-23T02:48:41;17.08;;;9.00;;
20118;SDS011;10220;42.716;23.306;2022-10-23T02:51:14;15.13;;;8.43;;
20118;SDS011;10220;42.716;23.306;2022-10-23T02:56:19;13.45;;;9.13;;
20118;SDS011;10220;42.716;23.306;2022-10-23T03:04:24;13.27;;;8.20;;
20118;SDS011;10220;42.716;23.306;2022-10-23T03:06:52;26.10;;;9.63;;
20118;SDS011;10220;42.716;23.306;2022-10-23T03:09:17;15.73;;;8.05;;
20118;SDS011;10220;42.716;23.306;2022-10-23T03:11:43;16.63;;;8.50;;
20118;SDS011;10220;42.716;23.306;2022-10-23T03:14:09;15.75;;;8.40;;
20118;SDS011;10220;42.716;23.306;2022-10-23T03:16:36;16.90;;;8.65;;
20118;SDS011;10220;42.716;23.306;2022-10-23T03:19:02;12.90;;;7.50;;
20118;SDS011;10220;42.716;23.306;2022-10-23T03:21:27;18.35;;;8.15;;
20118;SDS011;10220;42.716;23.306;2022-10-23T03:23:52;18.58;;;8.88;;
20118;SDS011;10220;42.716;23.306;2022-10-23T03:26:18;12.60;;;7.85;;
20118;SDS011;10220;42.716;23.306;2022-10-23T03:28:43;19.40;;;8.65;;
20118;SDS011;10220;42.716;23.306;2022-10-23T03:31:09;12.60;;;7.72;;
20118;SDS011;10220;42.716;23.306;2022-10-23T03:33:34;13.85;;;7.88;;
20118;SDS011;10220;42.716;23.306;2022-10-23T03:35:59;11.90;;;8.23;;
20118;SDS011;10220;42.716;23.306;2022-10-23T03:38:25;15.45;;;7.50;;
20118;SDS011;10220;42.716;23.306;2022-10-23T03:40:50;15.45;;;7.95;;
20118;SDS011;10220;42.716;23.306;2022-10-23T03:43:16;15.10;;;7.90;;
20118;SDS011;10220;42.716;23.306;2022-10-23T03:45:41;13.02;;;7.22;;
20118;SDS011;10220;42.716;23.306;2022-10-23T03:48:07;14.23;;;7.93;;
20118;SDS011;10220;42.716;23.306;2022-10-23T03:50:32;16.23;;;8.00;;
20118;SDS011;10220;42.716;23.306;2022-10-23T03:52:59;13.35;;;7.43;;
20118;SDS011;10220;42.716;23.306;2022-10-23T03:55:24;13.02;;;7.38;;
20118;SDS011;10220;42.716;23.306;2022-10-23T03:57:51;11.50;;;7.43;;
20118;SDS011;10220;42.716;23.306;2022-10-23T04:00:17;8.05;;;5.75;;
20118;SDS011;10220;42.716;23.306;2022-10-23T04:02:42;13.52;;;6.20;;
20118;SDS011;10220;42.716;23.306;2022-10-23T04:05:08;9.82;;;5.85;;
20118;SDS011;10220;42.716;23.306;2022-10-23T04:07:33;6.93;;;4.78;;
20118;SDS011;10220;42.716;23.306;2022-10-23T04:09:59;8.82;;;4.32;;
20118;SDS011;10220;42.716;23.306;2022-10-23T04:12:24;7.97;;;4.10;;
20118;SDS011;10220;42.716;23.306;2022-10-23T04:14:49;6.55;;;4.18;;
20118;SDS011;10220;42.716;23.306;2022-10-23T04:17:15;4.28;;;3.25;;
20118;SDS011;10220;42.716;23.306;2022-10-23T04:19:40;6.72;;;3.70;;
20118;SDS011;10220;42.716;23.306;2022-10-23T04:22:06;6.05;;;3.47;;
20118;SDS011;10220;42.716;23.306;2022-10-23T04:24:31;7.85;;;4.07;;
20118;SDS011;10220;42.716;23.306;2022-10-23T04:26:56;11.65;;;4.07;;
20118;SDS011;10220;42.716;23.306;2022-10-23T04:29:22;5.07;;;3.85;;
20118;SDS011;10220;42.716;23.306;2022-10-23T04:31:48;6.20;;;3.88;;
20118;SDS011;10220;42.716;23.306;2022-10-23T04:34:15;8.30;;;5.43;;
20118;SDS011;10220;42.716;23.306;2022-10-23T04:36:41;10.15;;;5.45;;
20118;SDS011;10220;42.716;23.306;2022-10-23T04:39:07;13.82;;;5.63;;
20118;SDS011;10220;42.716;23.306;2022-10-23T04:41:32;8.55;;;5.15;;
20118;SDS011;10220;42.716;23.306;2022-10-23T04:43:58;4.95;;;4.18;;
20118;SDS011;10220;42.716;23.306;2022-10-23T04:46:23;10.48;;;5.57;;
20118;SDS011;10220;42.716;23.306;2022-10-23T04:48:49;10.40;;;7.05;;
20118;SDS011;10220;42.716;23.306;2022-10-23T04:51:14;11.57;;;7.43;;
20118;SDS011;10220;42.716;23.306;2022-10-23T04:53:39;11.75;;;6.93;;
20118;SDS011;10220;42.716;23.306;2022-10-23T04:56:05;13.70;;;8.00;;
20118;SDS011;10220;42.716;23.306;2022-10-23T04:58:30;14.40;;;6.50;;
20118;SDS011;10220;42.716;23.306;2022-10-23T05:00:56;11.43;;;7.30;;
20118;SDS011;10220;42.716;23.306;2022-10-23T05:03:23;15.05;;;8.13;;
20118;SDS011;10220;42.716;23.306;2022-10-23T05:05:53;9.27;;;6.85;;
20118;SDS011;10220;42.716;23.306;2022-10-23T05:08:20;16.00;;;6.75;;
20118;SDS011;10220;42.716;23.306;2022-10-23T05:10:47;12.30;;;6.72;;
20118;SDS011;10220;42.716;23.306;2022-10-23T05:13:13;15.63;;;6.68;;
20118;SDS011;10220;42.716;23.306;2022-10-23T05:15:39;15.52;;;7.05;;
20118;SDS011;10220;42.716;23.306;2022-10-23T05:18:12;18.40;;;8.30;;
20118;SDS011;10220;42.716;23.306;2022-10-23T05:20:51;14.25;;;7.45;;
20118;SDS011;10220;42.716;23.306;2022-10-23T05:23:21;16.88;;;6.95;;
20118;SDS011;10220;42.716;23.306;2022-10-23T05:25:49;11.77;;;7.15;;
20118;SDS011;10220;42.716;23.306;2022-10-23T05:28:14;11.88;;;7.13;;
20118;SDS011;10220;42.716;23.306;2022-10-23T05:30:40;9.57;;;6.97;;
20118;SDS011;10220;42.716;23.306;2022-10-23T05:33:06;12.88;;;8.80;;
20118;SDS011;10220;42.716;23.306;2022-10-23T05:35:33;9.55;;;6.13;;
20118;SDS011;10220;42.716;23.306;2022-10-23T05:37:58;9.52;;;5.97;;
20118;SDS011;10220;42.716;23.306;2022-10-23T05:40:25;6.63;;;5.40;;
20118;SDS011;10220;42.716;23.306;2022-10-23T05:42:51;10.30;;;7.45;;
20118;SDS011;10220;42.716;23.306;2022-10-23T05:45:16;15.50;;;7.53;;
20118;SDS011;10220;42.716;23.306;2022-10-23T05:47:42;19.55;;;8.35;;
20118;SDS011;10220;42.716;23.306;2022-10-23T05:50:09;11.88;;;6.90;;
20118;SDS011;10220;42.716;23.306;2022-10-23T05:52:34;9.55;;;5.45;;
20118;SDS011;10220;42.716;23.306;2022-10-23T05:54:59;6.65;;;4.22;;
20118;SDS011;10220;42.716;23.306;2022-10-23T05:57:25;7.43;;;4.70;;
20118;SDS011;10220;42.716;23.306;2022-10-23T05:59:50;9.38;;;5.35;;
20118;SDS011;10220;42.716;23.306;2022-10-23T06:02:16;9.38;;;5.45;;
20118;SDS011;10220;42.716;23.306;2022-10-23T06:04:41;8.02;;;4.72;;
20118;SDS011;10220;42.716;23.306;2022-10-23T06:07:07;9.85;;;3.70;;
20118;SDS011;10220;42.716;23.306;2022-10-23T06:09:32;10.55;;;5.65;;
20118;SDS011;10220;42.716;23.306;2022-10-23T06:11:58;11.40;;;6.43;;
20118;SDS011;10220;42.716;23.306;2022-10-23T06:14:25;10.32;;;6.22;;
20118;SDS011;10220;42.716;23.306;2022-10-23T06:16:51;10.63;;;6.68;;
20118;SDS011;10220;42.716;23.306;2022-10-23T06:19:16;10.00;;;6.78;;
20118;SDS011;10220;42.716;23.306;2022-10-23T06:21:41;9.98;;;6.35;;
20118;SDS011;10220;42.716;23.306;2022-10-23T06:24:07;9.77;;;4.25;;
20118;SDS011;10220;42.716;23.306;2022-10-23T06:26:33;9.55;;;4.75;;
20118;SDS011;10220;42.716;23.306;2022-10-23T06:28:58;7.75;;;3.45;;
20118;SDS011;10220;42.716;23.306;2022-10-23T06:31:24;4.30;;;3.00;;
20118;SDS011;10220;42.716;23.306;2022-10-23T06:33:52;8.07;;;2.80;;
20118;SDS011;10220;42.716;23.306;2022-10-23T06:36:18;6.50;;;2.95;;
20118;SDS011;10220;42.716;23.306;2022-10-23T06:38:43;3.35;;;2.50;;
20118;SDS011;10220;42.716;23.306;2022-10-23T06:41:18;6.10;;;3.00;;
20118;SDS011;10220;42.716;23.306;2022-10-23T06:43:48;4.22;;;2.50;;
20118;SDS011;10220;42.716;23.306;2022-10-23T06:46:15;4.07;;;2.65;;
20118;SDS011;10220;42.716;23.306;2022-10-23T06:48:42;4.85;;;2.15;;
20118;SDS011;10220;42.716;23.306;2022-10-23T06:51:08;3.83;;;2.60;;
20118;SDS011;10220;42.716;23.306;2022-10-23T06:53:35;2.83;;;2.38;;
20118;SDS011;10220;42.716;23.306;2022-10-23T06:56:02;6.28;;;2.83;;
20118;SDS011;10220;42.716;23.306;2022-10-23T06:58:29;5.68;;;2.60;;
20118;SDS011;10220;42.716;23.306;2022-10-23T07:00:54;4.75;;;2.90;;
20118;SDS011;10220;42.716;23.306;2022-10-23T07:03:20;7.55;;;4.53;;
20118;SDS011;10220;42.716;23.306;2022-10-23T07:05:46;11.43;;;3.70;;
20118;SDS011;10220;42.716;23.306;2022-10-23T07:08:12;6.80;;;4.07;;
20118;SDS011;10220;42.716;23.306;2022-10-23T07:10:38;4.65;;;3.30;;
20118;SDS011;10220;42.716;23.306;2022-10-23T07:13:07;8.13;;;4.57;;
20118;SDS011;10220;42.716;23.306;2022-10-23T07:15:33;5.40;;;3.40;;
20118;SDS011;10220;42.716;23.306;2022-10-23T07:17:59;8.13;;;3.10;;
20118;SDS011;10220;42.716;23.306;2022-10-23T07:20:24;6.82;;;3.53;;
20118;SDS011;10220;42.716;23.306;2022-10-23T07:22:50;4.07;;;2.95;;
20118;SDS011;10220;42.716;23.306;2022-10-23T07:25:18;6.95;;;2.83;;
20118;SDS011;10220;42.716;23.306;2022-10-23T07:27:44;4.30;;;3.33;;
20118;SDS011;10220;42.716;23.306;2022-10-23T07:30:09;16.48;;;5.78;;
20118;SDS011;10220;42.716;23.306;2022-10-23T07:32:35;4.13;;;2.90;;
20118;SDS011;10220;42.716;23.306;2022-10-23T07:35:01;8.50;;;3.25;;
20118;SDS011;10220;42.716;23.306;2022-10-23T07:37:27;5.38;;;3.38;;
20118;SDS011;10220;42.716;23.306;2022-10-23T07:39:53;5.70;;;2.80;;
20118;SDS011;10220;42.716;23.306;2022-10-23T07:42:19;4.60;;;3.20;;
20118;SDS011;10220;42.716;23.306;2022-10-23T07:44:44;4.53;;;2.33;;
20118;SDS011;10220;42.716;23.306;2022-10-23T07:47:10;7.22;;;3.83;;
20118;SDS011;10220;42.716;23.306;2022-10-23T07:49:35;9.63;;;6.38;;
20118;SDS011;10220;42.716;23.306;2022-10-23T07:52:00;6.90;;;2.75;;
20118;SDS011;10220;42.716;23.306;2022-10-23T07:54:26;3.35;;;2.33;;
20118;SDS011;10220;42.716;23.306;2022-10-23T07:56:51;4.65;;;2.70;;
20118;SDS011;10220;42.716;23.306;2022-10-23T07:59:16;3.20;;;2.33;;
20118;SDS011;10220;42.716;23.306;2022-10-23T08:01:42;3.33;;;1.98;;
20118;SDS011;10220;42.716;23.306;2022-10-23T08:04:08;4.60;;;2.67;;
20118;SDS011;10220;42.716;23.306;2022-10-23T08:06:34;9.20;;;2.92;;
20118;SDS011;10220;42.716;23.306;2022-10-23T08:09:00;5.88;;;3.70;;
20118;SDS011;10220;42.716;23.306;2022-10-23T08:11:26;5.68;;;4.03;;
20118;SDS011;10220;42.716;23.306;2022-10-23T08:13:56;3.55;;;2.10;;
20118;SDS011;10220;42.716;23.306;2022-10-23T08:16:22;2.80;;;2.50;;
20118;SDS011;10220;42.716;23.306;2022-10-23T08:18:49;5.70;;;2.30;;
20118;SDS011;10220;42.716;23.306;2022-10-23T08:21:15;3.70;;;2.60;;
20118;SDS011;10220;42.716;23.306;2022-10-23T08:23:42;2.67;;;1.90;;
20118;SDS011;10220;42.716;23.306;2022-10-23T08:26:08;3.38;;;2.58;;
20118;SDS011;10220;42.716;23.306;2022-10-23T08:28:34;6.78;;;2.53;;
20118;SDS011;10220;42.716;23.306;2022-10-23T08:31:05;6.70;;;2.75;;
20118;SDS011;10220;42.716;23.306;2022-10-23T08:33:35;7.72;;;4.80;;
20118;SDS011;10220;42.716;23.306;2022-10-23T08:36:00;3.15;;;2.15;;
20118;SDS011;10220;42.716;23.306;2022-10-23T08:38:26;5.05;;;2.45;;
20118;SDS011;10220;42.716;23.306;2022-10-23T08:40:51;5.75;;;3.22;;
20118;SDS011;10220;42.716;23.306;2022-10-23T08:43:20;4.55;;;2.38;;
20118;SDS011;10220;42.716;23.306;2022-10-23T08:45:55;6.03;;;3.10;;
20118;SDS011;10220;42.716;23.306;2022-10-23T08:51:25;7.63;;;4.82;;
20118;SDS011;10220;42.716;23.306;2022-10-23T08:54:00;4.25;;;2.10;;
20118;SDS011;10220;42.716;23.306;2022-10-23T08:56:31;6.80;;;4.53;;
20118;SDS011;10220;42.716;23.306;2022-10-23T09:02:01;14.00;;;5.38;;
20118;SDS011;10220;42.716;23.306;2022-10-23T09:04:35;17.70;;;8.77;;
20118;SDS011;10220;42.716;23.306;2022-10-23T09:20:20;3.80;;;2.22;;
20118;SDS011;10220;42.716;23.306;2022-10-23T09:22:49;6.32;;;2.58;;
20118;SDS011;10220;42.716;23.306;2022-10-23T09:25:20;2.83;;;1.92;;
20118;SDS011;10220;42.716;23.306;2022-10-23T09:27:49;6.88;;;4.28;;
20118;SDS011;10220;42.716;23.306;2022-10-23T09:30:34;3.65;;;2.22;;
20118;SDS011;10220;42.716;23.306;2022-10-23T09:35:59;3.40;;;2.42;;
20118;SDS011;10220;42.716;23.306;2022-10-23T09:38:28;15.85;;;8.75;;
20118;SDS011;10220;42.716;23.306;2022-10-23T09:40:54;16.38;;;9.73;;
20118;SDS011;10220;42.716;23.306;2022-10-23T09:43:20;8.48;;;5.05;;
20118;SDS011;10220;42.716;23.306;2022-10-23T09:45:55;3.70;;;2.60;;
20118;SDS011;10220;42.716;23.306;2022-10-23T09:48:25;4.93;;;3.05;;
20118;SDS011;10220;42.716;23.306;2022-10-23T09:50:52;8.48;;;5.28;;
20118;SDS011;10220;42.716;23.306;2022-10-23T09:55:57;2.97;;;2.25;;
20118;SDS011;10220;42.716;23.306;2022-10-23T09:58:30;9.07;;;5.35;;
20118;SDS011;10220;42.716;23.306;2022-10-23T10:00:58;4.70;;;2.83;;
20118;SDS011;10220;42.716;23.306;2022-10-23T10:03:24;0.93;;;0.82;;
20118;SDS011;10220;42.716;23.306;2022-10-23T10:05:53;3.67;;;1.88;;
20118;SDS011;10220;42.716;23.306;2022-10-23T10:14:22;3.65;;;1.92;;
20118;SDS011;10220;42.716;23.306;2022-10-23T10:25:01;3.25;;;2.22;;
20118;SDS011;10220;42.716;23.306;2022-10-23T10:27:38;2.58;;;1.48;;
20118;SDS011;10220;42.716;23.306;2022-10-23T10:30:17;2.40;;;1.73;;
20118;SDS011;10220;42.716;23.306;2022-10-23T10:32:50;1.15;;;0.98;;
20118;SDS011;10220;42.716;23.306;2022-10-23T10:38:12;1.75;;;1.58;;
20118;SDS011;10220;42.716;23.306;2022-10-23T10:43:59;3.65;;;2.58;;
20118;SDS011;10220;42.716;23.306;2022-10-23T10:49:37;2.05;;;1.48;;
20118;SDS011;10220;42.716;23.306;2022-10-23T10:52:09;1.67;;;1.48;;
20118;SDS011;10220;42.716;23.306;2022-10-23T10:57:33;4.88;;;1.63;;
20118;SDS011;10220;42.716;23.306;2022-10-23T11:00:04;2.05;;;1.40;;
20118;SDS011;10220;42.716;23.306;2022-10-23T11:03:00;3.08;;;1.35;;
20118;SDS011;10220;42.716;23.306;2022-10-23T11:07:53;5.53;;;3.40;;
20118;SDS011;10220;42.716;23.306;2022-10-23T11:10:22;4.50;;;2.55;;
20118;SDS011;10220;42.716;23.306;2022-10-23T11:12:48;3.67;;;2.60;;
20118;SDS011;10220;42.716;23.306;2022-10-23T11:15:15;2.22;;;1.35;;
20118;SDS011;10220;42.716;23.306;2022-10-23T11:17:49;3.47;;;1.42;;
20118;SDS011;10220;42.716;23.306;2022-10-23T11:20:28;1.20;;;1.10;;
20118;SDS011;10220;42.716;23.306;2022-10-23T11:34:04;1.13;;;1.02;;
20118;SDS011;10220;42.716;23.306;2022-10-23T11:36:52;1.20;;;1.13;;
20118;SDS011;10220;42.716;23.306;2022-10-23T11:39:23;2.10;;;1.60;;
20118;SDS011;10220;42.716;23.306;2022-10-23T11:41:54;3.67;;;1.60;;
20118;SDS011;10220;42.716;23.306;2022-10-23T11:47:03;5.07;;;1.50;;
20118;SDS011;10220;42.716;23.306;2022-10-23T11:49:30;3.92;;;1.40;;
20118;SDS011;10220;42.716;23.306;2022-10-23T11:52:02;3.28;;;0.98;;
20118;SDS011;10220;42.716;23.306;2022-10-23T11:54:29;1.13;;;0.98;;
20118;SDS011;10220;42.716;23.306;2022-10-23T11:57:16;3.00;;;1.83;;
20118;SDS011;10220;42.716;23.306;2022-10-23T12:04:56;9.60;;;2.40;;
20118;SDS011;10220;42.716;23.306;2022-10-23T12:09:58;3.38;;;1.80;;
20118;SDS011;10220;42.716;23.306;2022-10-23T12:12:33;2.00;;;1.33;;
20118;SDS011;10220;42.716;23.306;2022-10-23T12:15:23;1.20;;;1.10;;
20118;SDS011;10220;42.716;23.306;2022-10-23T12:17:50;1.30;;;0.95;;
20118;SDS011;10220;42.716;23.306;2022-10-23T12:33:59;2.45;;;1.48;;
20118;SDS011;10220;42.716;23.306;2022-10-23T12:39:53;2.63;;;2.33;;
20118;SDS011;10220;42.716;23.306;2022-10-23T12:42:24;2.00;;;1.25;;
20118;SDS011;10220;42.716;23.306;2022-10-23T12:44:58;1.50;;;0.90;;
20118;SDS011;10220;42.716;23.306;2022-10-23T12:47:25;1.75;;;1.33;;
20118;SDS011;10220;42.716;23.306;2022-10-23T12:49:52;2.22;;;1.80;;
20118;SDS011;10220;42.716;23.306;2022-10-23T12:52:18;4.75;;;1.10;;
20118;SDS011;10220;42.716;23.306;2022-10-23T12:54:45;1.98;;;0.93;;
20118;SDS011;10220;42.716;23.306;2022-10-23T12:59:47;1.15;;;1.00;;
20118;SDS011;10220;42.716;23.306;2022-10-23T13:04:44;1.30;;;1.05;;
20118;SDS011;10220;42.716;23.306;2022-10-23T13:07:10;1.52;;;1.23;;
20118;SDS011;10220;42.716;23.306;2022-10-23T13:09:37;2.30;;;0.77;;
20118;SDS011;10220;42.716;23.306;2022-10-23T13:12:05;1.15;;;1.02;;
20118;SDS011;10220;42.716;23.306;2022-10-23T13:14:41;1.85;;;1.73;;
20118;SDS011;10220;42.716;23.306;2022-10-23T13:17:20;3.97;;;2.50;;
20118;SDS011;10220;42.716;23.306;2022-10-23T13:19:46;2.50;;;2.33;;
20118;SDS011;10220;42.716;23.306;2022-10-23T13:22:16;1.25;;;1.17;;
20118;SDS011;10220;42.716;23.306;2022-10-23T13:24:44;0.95;;;0.80;;
20118;SDS011;10220;42.716;23.306;2022-10-23T13:30:23;2.75;;;2.13;;
20118;SDS011;10220;42.716;23.306;2022-10-23T13:32:54;4.82;;;2.00;;
20118;SDS011;10220;42.716;23.306;2022-10-23T13:35:20;1.77;;;1.52;;
20118;SDS011;10220;42.716;23.306;2022-10-23T13:37:46;3.08;;;1.30;;
20118;SDS011;10220;42.716;23.306;2022-10-23T13:42:48;3.30;;;1.55;;
20118;SDS011;10220;42.716;23.306;2022-10-23T13:45:19;4.82;;;3.30;;
20118;SDS011;10220;42.716;23.306;2022-10-23T13:47:47;1.52;;;1.40;;
20118;SDS011;10220;42.716;23.306;2022-10-23T13:50:12;3.65;;;2.10;;
20118;SDS011;10220;42.716;23.306;2022-10-23T13:52:38;1.67;;;1.27;;
20118;SDS011;10220;42.716;23.306;2022-10-23T13:55:24;0.73;;;0.55;;
20118;SDS011;10220;42.716;23.306;2022-10-23T13:57:50;2.10;;;1.52;;
20118;SDS011;10220;42.716;23.306;2022-10-23T14:00:16;4.38;;;1.08;;
20118;SDS011;10220;42.716;23.306;2022-10-23T14:02:42;3.58;;;1.80;;
20118;SDS011;10220;42.716;23.306;2022-10-23T14:05:07;0.90;;;0.90;;
20118;SDS011;10220;42.716;23.306;2022-10-23T14:07:34;2.70;;;1.23;;
20118;SDS011;10220;42.716;23.306;2022-10-23T14:09:59;5.32;;;1.25;;
20118;SDS011;10220;42.716;23.306;2022-10-23T14:12:25;3.88;;;2.35;;
20118;SDS011;10220;42.716;23.306;2022-10-23T14:14:50;1.27;;;1.17;;
20118;SDS011;10220;42.716;23.306;2022-10-23T14:17:17;5.78;;;1.27;;
20118;SDS011;10220;42.716;23.306;2022-10-23T14:19:45;0.98;;;0.95;;
20118;SDS011;10220;42.716;23.306;2022-10-23T14:22:11;1.80;;;1.70;;
20118;SDS011;10220;42.716;23.306;2022-10-23T14:24:36;1.27;;;0.90;;
20118;SDS011;10220;42.716;23.306;2022-10-23T14:27:02;1.65;;;1.20;;
20118;SDS011;10220;42.716;23.306;2022-10-23T14:29:27;1.58;;;1.05;;
20118;SDS011;10220;42.716;23.306;2022-10-23T14:31:53;3.20;;;1.92;;
20118;SDS011;10220;42.716;23.306;2022-10-23T14:34:18;2.85;;;1.45;;
20118;SDS011;10220;42.716;23.306;2022-10-23T14:36:44;1.73;;;1.48;;
20118;SDS011;10220;42.716;23.306;2022-10-23T14:39:09;1.25;;;1.08;;
20118;SDS011;10220;42.716;23.306;2022-10-23T14:41:35;1.30;;;1.10;;
20118;SDS011;10220;42.716;23.306;2022-10-23T14:44:02;4.45;;;1.80;;
20118;SDS011;10220;42.716;23.306;2022-10-23T14:46:27;2.72;;;1.77;;
20118;SDS011;10220;42.716;23.306;2022-10-23T14:48:53;5.57;;;3.25;;
20118;SDS011;10220;42.716;23.306;2022-10-23T14:51:20;2.25;;;1.98;;
20118;SDS011;10220;42.716;23.306;2022-10-23T14:53:57;1.77;;;1.30;;
20118;SDS011;10220;42.716;23.306;2022-10-23T14:56:25;4.35;;;2.67;;
20118;SDS011;10220;42.716;23.306;2022-10-23T14:58:51;4.38;;;3.13;;
20118;SDS011;10220;42.716;23.306;2022-10-23T15:01:17;10.18;;;5.78;;
20118;SDS011;10220;42.716;23.306;2022-10-23T15:03:43;11.45;;;2.90;;
20118;SDS011;10220;42.716;23.306;2022-10-23T15:06:08;12.60;;;6.90;;
20118;SDS011;10220;42.716;23.306;2022-10-23T15:08:34;11.52;;;5.65;;
20118;SDS011;10220;42.716;23.306;2022-10-23T15:11:00;3.40;;;1.65;;
20118;SDS011;10220;42.716;23.306;2022-10-23T15:13:27;7.15;;;4.28;;
20118;SDS011;10220;42.716;23.306;2022-10-23T15:16:06;6.18;;;2.35;;
20118;SDS011;10220;42.716;23.306;2022-10-23T15:18:33;6.72;;;2.17;;
20118;SDS011;10220;42.716;23.306;2022-10-23T15:21:05;13.43;;;7.22;;
20118;SDS011;10220;42.716;23.306;2022-10-23T15:23:33;4.47;;;2.22;;
20118;SDS011;10220;42.716;23.306;2022-10-23T15:26:00;2.92;;;1.35;;
20118;SDS011;10220;42.716;23.306;2022-10-23T15:28:28;2.90;;;1.83;;
20118;SDS011;10220;42.716;23.306;2022-10-23T15:30:54;3.17;;;1.85;;
20118;SDS011;10220;42.716;23.306;2022-10-23T15:33:20;6.57;;;3.20;;
20118;SDS011;10220;42.716;23.306;2022-10-23T15:35:46;6.03;;;1.92;;
20118;SDS011;10220;42.716;23.306;2022-10-23T15:38:12;7.82;;;4.57;;
20118;SDS011;10220;42.716;23.306;2022-10-23T15:40:38;4.88;;;1.92;;
20118;SDS011;10220;42.716;23.306;2022-10-23T15:43:03;14.65;;;6.65;;
20118;SDS011;10220;42.716;23.306;2022-10-23T15:45:29;37.30;;;21.25;;
20118;SDS011;10220;42.716;23.306;2022-10-23T15:47:55;3.53;;;1.92;;
20118;SDS011;10220;42.716;23.306;2022-10-23T15:50:21;2.15;;;1.45;;
20118;SDS011;10220;42.716;23.306;2022-10-23T15:52:46;4.57;;;1.92;;
20118;SDS011;10220;42.716;23.306;2022-10-23T15:55:12;2.58;;;1.95;;
20118;SDS011;10220;42.716;23.306;2022-10-23T15:57:39;4.55;;;1.92;;
20118;SDS011;10220;42.716;23.306;2022-10-23T16:00:05;2.97;;;2.03;;
20118;SDS011;10220;42.716;23.306;2022-10-23T16:02:32;3.28;;;2.42;;
20118;SDS011;10220;42.716;23.306;2022-10-23T16:04:57;5.85;;;3.58;;
20118;SDS011;10220;42.716;23.306;2022-10-23T16:07:23;13.75;;;6.38;;
20118;SDS011;10220;42.716;23.306;2022-10-23T16:09:48;10.38;;;3.03;;
20118;SDS011;10220;42.716;23.306;2022-10-23T16:12:14;3.63;;;2.38;;
20118;SDS011;10220;42.716;23.306;2022-10-23T16:14:39;5.75;;;2.65;;
20118;SDS011;10220;42.716;23.306;2022-10-23T16:17:05;2.45;;;2.25;;
20118;SDS011;10220;42.716;23.306;2022-10-23T16:19:31;35.88;;;18.65;;
20118;SDS011;10220;42.716;23.306;2022-10-23T16:21:57;4.97;;;3.35;;
20118;SDS011;10220;42.716;23.306;2022-10-23T16:24:23;5.45;;;2.45;;
20118;SDS011;10220;42.716;23.306;2022-10-23T16:26:49;6.63;;;1.60;;
20118;SDS011;10220;42.716;23.306;2022-10-23T16:29:17;5.32;;;1.95;;
20118;SDS011;10220;42.716;23.306;2022-10-23T16:31:43;4.93;;;2.55;;
20118;SDS011;10220;42.716;23.306;2022-10-23T16:34:09;3.85;;;2.13;;
20118;SDS011;10220;42.716;23.306;2022-10-23T16:36:35;3.88;;;2.53;;
20118;SDS011;10220;42.716;23.306;2022-10-23T16:39:03;3.45;;;1.95;;
20118;SDS011;10220;42.716;23.306;2022-10-23T16:41:29;9.20;;;3.15;;
20118;SDS011;10220;42.716;23.306;2022-10-23T16:43:54;7.65;;;3.00;;
20118;SDS011;10220;42.716;23.306;2022-10-23T16:46:20;9.27;;;5.47;;
20118;SDS011;10220;42.716;23.306;2022-10-23T16:48:46;48.53;;;25.08;;
20118;SDS011;10220;42.716;23.306;2022-10-23T16:51:14;44.45;;;23.33;;
20118;SDS011;10220;42.716;23.306;2022-10-23T16:53:41;7.03;;;4.40;;
20118;SDS011;10220;42.716;23.306;2022-10-23T16:56:08;6.95;;;4.50;;
20118;SDS011;10220;42.716;23.306;2022-10-23T16:58:35;11.10;;;6.03;;